Time;durP1;ratioP1;P1;durP2;ratioP2;P2;SDS_P1;SDS_P2;PMS_P1;PMS_P2;Temp;Humidity;BMP_temperature;BMP_pressure;BME280_temperature;BME280_humidity;BME280_pressure;Samples;Min_cycle;Max_cycle;Signal;HPM_P1;HPM_P2
2022/02/25 00:01:49;;;;;;;16.30;4.77;;;5.40;1.00;;;;;;4399202;28;656746;-72
2022/02/25 00:04:38;;;;;;;13.20;3.70;;;5.40;1.00;;;;;;4381382;28;657770;-73
2022/02/25 00:07:25;;;;;;;9.33;3.57;;;5.50;1.00;;;;;;4393676;28;656550;-72
2022/02/25 00:10:13;;;;;;;9.70;3.47;;;5.60;1.00;;;;;;4404832;28;656476;-73
2022/02/25 00:13:01;;;;;;;10.40;3.50;;;5.60;1.00;;;;;;4383708;28;655564;-72
2022/02/25 00:15:50;;;;;;;12.60;4.17;;;5.70;1.00;;;;;;4409078;28;656451;-72
2022/02/25 00:18:37;;;;;;;21.60;5.80;;;5.70;1.00;;;;;;4377406;28;658033;-72
2022/02/25 00:21:25;;;;;;;17.17;5.63;;;5.60;1.00;;;;;;4407847;28;657259;-73
2022/02/25 00:24:12;;;;;;;13.10;4.83;;;5.60;1.00;;;;;;4380295;28;657939;-73
2022/02/25 00:27:00;;;;;;;15.83;4.87;;;5.50;1.00;;;;;;4402563;28;656331;-73
2022/02/25 00:29:47;;;;;;;14.97;4.73;;;5.40;1.00;;;;;;4380879;28;658724;-72
2022/02/25 00:32:36;;;;;;;14.27;4.53;;;5.30;1.00;;;;;;4398680;28;656400;-73
2022/02/25 00:35:24;;;;;;;11.03;4.30;;;5.30;1.00;;;;;;4378432;28;656767;-72
2022/02/25 00:38:12;;;;;;;7.23;2.80;;;5.30;1.00;;;;;;4379608;28;656173;-72
2022/02/25 00:40:59;;;;;;;11.77;4.00;;;5.40;1.00;;;;;;4400864;28;655627;-72
2022/02/25 00:43:47;;;;;;;9.03;3.13;;;5.50;1.00;;;;;;4381220;28;656579;-72
2022/02/25 00:46:34;;;;;;;10.27;3.53;;;5.40;1.00;;;;;;4395344;28;655273;-73
2022/02/25 00:49:23;;;;;;;10.47;3.23;;;5.50;1.00;;;;;;4377130;28;657399;-72
2022/02/25 00:52:11;;;;;;;7.97;3.00;;;5.50;1.00;;;;;;4381838;28;656417;-72
2022/02/25 00:54:58;;;;;;;9.47;3.20;;;5.60;1.00;;;;;;4399669;28;655771;-72
2022/02/25 00:57:46;;;;;;;9.40;2.63;;;5.70;1.00;;;;;;4387389;28;655911;-72
2022/02/25 01:00:34;;;;;;;7.93;3.13;;;5.90;1.00;;;;;;4399096;28;655576;-72
2022/02/25 01:03:22;;;;;;;7.53;2.57;;;6.00;1.00;;;;;;4378704;28;656157;-73
2022/02/25 01:06:12;;;;;;;8.60;3.13;;;6.10;1.00;;;;;;4400269;28;655168;-72
2022/02/25 01:09:00;;;;;;;6.20;2.70;;;6.00;1.00;;;;;;4376391;28;655628;-72
2022/02/25 01:11:47;;;;;;;10.57;3.17;;;6.20;1.00;;;;;;4381615;28;657025;-73
2022/02/25 01:14:35;;;;;;;11.27;3.80;;;6.20;1.00;;;;;;4394964;28;656986;-72
2022/02/25 01:17:23;;;;;;;8.77;3.40;;;6.20;1.00;;;;;;4403429;28;657781;-72
2022/02/25 01:20:11;;;;;;;9.73;3.37;;;6.10;1.00;;;;;;4383054;28;655554;-71
2022/02/25 01:23:00;;;;;;;9.97;3.43;;;6.00;1.00;;;;;;4403196;28;656076;-72
2022/02/25 01:25:48;;;;;;;9.40;3.10;;;6.00;1.00;;;;;;4387655;28;656977;-73
2022/02/25 01:28:35;;;;;;;8.13;2.80;;;6.00;1.00;;;;;;4386003;28;655335;-72
2022/02/25 01:31:23;;;;;;;8.53;2.83;;;6.20;1.00;;;;;;4407458;28;656531;-72
2022/02/25 01:34:11;;;;;;;7.37;2.60;;;6.30;1.00;;;;;;4386976;28;655849;-72
2022/02/25 01:36:58;;;;;;;9.10;2.70;;;6.40;1.00;;;;;;4407057;28;656308;-72
2022/02/25 01:39:47;;;;;;;10.70;2.90;;;6.50;1.00;;;;;;4385689;28;656779;-71
2022/02/25 01:42:46;;;;;;;11.50;2.77;;;6.50;1.00;;;;;;4398109;28;657153;-72
2022/02/25 01:45:35;;;;;;;8.63;2.90;;;6.40;1.00;;;;;;4383732;28;656949;-73
2022/02/25 01:48:23;;;;;;;10.80;3.03;;;6.40;1.00;;;;;;4378600;28;656933;-72
2022/02/25 01:51:11;;;;;;;5.73;2.60;;;6.40;1.00;;;;;;4391329;28;656873;-72
2022/02/25 01:53:58;;;;;;;7.13;2.93;;;6.40;1.00;;;;;;4401514;28;655685;-72
2022/02/25 01:56:47;;;;;;;9.70;2.60;;;6.30;1.00;;;;;;4388057;28;655115;-72
2022/02/25 01:59:37;;;;;;;11.90;2.80;;;6.20;1.00;;;;;;4405082;28;655469;-72
2022/02/25 02:02:24;;;;;;;7.53;2.93;;;6.20;1.00;;;;;;4380901;28;656478;-72
2022/02/25 02:05:12;;;;;;;8.83;3.07;;;6.10;1.00;;;;;;4378093;28;655857;-73
2022/02/25 02:07:59;;;;;;;7.43;3.30;;;6.00;1.00;;;;;;4402737;28;655001;-73
2022/02/25 02:10:47;;;;;;;10.00;3.90;;;5.90;1.00;;;;;;4381364;28;657096;-73
2022/02/25 02:13:36;;;;;;;12.67;4.20;;;5.80;1.00;;;;;;4396033;28;656921;-73
2022/02/25 02:16:23;;;;;;;9.93;3.73;;;5.70;1.00;;;;;;4374460;28;657407;-73
2022/02/25 02:19:11;;;;;;;9.70;3.53;;;5.70;1.00;;;;;;4379564;28;656032;-72
2022/02/25 02:21:58;;;;;;;10.53;3.40;;;5.70;1.00;;;;;;4399933;28;656392;-72
2022/02/25 02:24:47;;;;;;;13.77;3.37;;;5.60;1.00;;;;;;4388064;28;656948;-72
2022/02/25 02:30:40;;;;;;;7.70;2.93;;;5.50;1.00;;;;;;4356078;28;656901;-72
2022/02/25 02:33:28;;;;;;;5.73;2.87;;;5.40;1.00;;;;;;4397296;28;656166;-73
2022/02/25 02:36:16;;;;;;;9.67;2.90;;;5.40;1.00;;;;;;4379047;28;656034;-72
2022/02/25 02:39:03;;;;;;;9.57;2.93;;;5.20;1.00;;;;;;4401503;28;656128;-73
2022/02/25 02:41:52;;;;;;;9.70;3.30;;;5.10;1.00;;;;;;4379254;28;655534;-72
2022/02/25 02:44:40;;;;;;;11.53;3.30;;;5.10;1.00;;;;;;4399998;28;655330;-73
2022/02/25 02:47:27;;;;;;;7.47;2.90;;;4.90;1.00;;;;;;4373675;28;658372;-72
2022/02/25 02:50:15;;;;;;;7.00;2.93;;;4.80;1.00;;;;;;4397413;28;655549;-73
2022/02/25 02:53:02;;;;;;;8.95;3.03;;;4.70;1.00;;;;;;4378713;28;656443;-72
2022/02/25 02:55:50;;;;;;;7.17;2.70;;;4.60;1.00;;;;;;4390537;28;655426;-72
2022/02/25 02:58:39;;;;;;;7.40;2.87;;;4.60;1.00;;;;;;4399008;28;657000;-72
2022/02/25 03:01:28;;;;;;;8.03;2.80;;;4.40;1.00;;;;;;4378518;28;656533;-73
2022/02/25 03:04:16;;;;;;;6.30;3.17;;;4.30;1.00;;;;;;4378682;28;655650;-71
2022/02/25 03:07:03;;;;;;;9.10;3.07;;;4.20;1.00;;;;;;4402762;28;655963;-73
2022/02/25 03:09:51;;;;;;;8.40;2.83;;;4.10;1.00;;;;;;4378880;28;655975;-73
2022/02/25 03:12:39;;;;;;;13.00;3.77;;;4.00;1.00;;;;;;4399960;28;656420;-73
2022/02/25 03:15:28;;;;;;;7.00;2.83;;;3.90;1.00;;;;;;4377660;28;656487;-72
2022/02/25 03:18:16;;;;;;;8.77;3.25;;;3.80;1.00;;;;;;4382846;28;655893;-72
2022/02/25 03:21:04;;;;;;;8.70;3.20;;;3.70;1.00;;;;;;4396948;28;657402;-73
2022/02/25 03:23:51;;;;;;;9.37;3.73;;;3.50;1.00;;;;;;4377141;28;655990;-72
2022/02/25 03:26:39;;;;;;;5.90;3.07;;;3.40;1.00;;;;;;4399286;28;656189;-73
2022/02/25 03:29:26;;;;;;;9.13;3.40;;;3.40;1.00;;;;;;4377739;28;655790;-72
2022/02/25 03:32:15;;;;;;;11.53;3.50;;;3.30;1.00;;;;;;4396832;28;655940;-71
2022/02/25 03:35:03;;;;;;;7.00;3.00;;;3.20;1.00;;;;;;4376105;28;658096;-73
2022/02/25 03:37:50;;;;;;;8.23;3.20;;;3.10;1.00;;;;;;4378149;28;655858;-72
2022/02/25 03:40:38;;;;;;;7.60;3.40;;;3.00;1.00;;;;;;4396928;28;657489;-73
2022/02/25 03:43:25;;;;;;;8.98;3.97;;;2.90;1.00;;;;;;4377779;28;655304;-72
2022/02/25 03:46:13;;;;;;;11.63;3.93;;;2.80;1.00;;;;;;4404799;28;656247;-72
2022/02/25 03:49:02;;;;;;;10.20;3.70;;;2.70;1.00;;;;;;4387962;28;656475;-72
2022/02/25 03:51:49;;;;;;;8.13;3.37;;;2.70;1.00;;;;;;4404970;28;656795;-73
2022/02/25 03:54:37;;;;;;;10.77;3.80;;;2.60;4.70;;;;;;4384390;28;656746;-72
2022/02/25 03:57:25;;;;;;;10.20;3.90;;;2.50;41.50;;;;;;4403699;28;657155;-73
2022/02/25 04:00:13;;;;;;;11.27;4.40;;;2.40;66.80;;;;;;4379937;28;659428;-74
2022/02/25 04:03:01;;;;;;;12.60;4.10;;;2.40;97.00;;;;;;4380940;28;657835;-72
2022/02/25 04:05:50;;;;;;;11.60;4.60;;;2.40;99.90;;;;;;4406229;28;658880;-73
2022/02/25 04:08:37;;;;;;;10.60;4.00;;;2.30;99.90;;;;;;4384679;28;658448;-73
2022/02/25 04:11:25;;;;;;;10.50;4.00;;;2.30;99.90;;;;;;4404126;28;657801;-72
2022/02/25 04:14:14;;;;;;;13.40;4.30;;;2.20;99.90;;;;;;4404826;28;659458;-72
2022/02/25 04:17:01;;;;;;;13.77;4.70;;;2.30;99.90;;;;;;4380873;28;657971;-72
2022/02/25 04:19:49;;;;;;;12.50;4.33;;;2.30;99.90;;;;;;4402850;28;658724;-73
2022/02/25 04:22:37;;;;;;;11.23;4.30;;;2.30;99.90;;;;;;4383989;28;658174;-72
2022/02/25 04:25:26;;;;;;;13.50;4.80;;;2.30;99.90;;;;;;4398405;28;657445;-72
2022/02/25 04:28:14;;;;;;;13.33;4.77;;;2.40;1.00;;;;;;4402091;28;658612;-73
2022/02/25 04:31:02;;;;;;;18.90;5.07;;;2.40;1.00;;;;;;4382749;28;656467;-73
2022/02/25 04:33:50;;;;;;;15.17;5.83;;;2.50;1.00;;;;;;4402527;28;657298;-73
2022/02/25 04:36:38;;;;;;;16.42;5.32;;;2.50;1.00;;;;;;4378358;28;657551;-72
2022/02/25 04:39:27;;;;;;;14.15;5.10;;;2.60;1.00;;;;;;4381461;28;656539;-71
2022/02/25 04:42:14;;;;;;;15.10;5.87;;;2.80;1.00;;;;;;4404440;28;656557;-73
2022/02/25 04:45:02;;;;;;;15.20;5.67;;;3.20;99.90;;;;;;4377983;28;658181;-73
2022/02/25 04:47:49;;;;;;;16.73;6.40;;;3.50;99.90;;;;;;4404261;28;658131;-73
2022/02/25 04:50:37;;;;;;;14.27;5.93;;;3.80;82.30;;;;;;4377823;28;659187;-72
2022/02/25 04:53:25;;;;;;;13.90;5.97;;;4.10;1.00;;;;;;4398156;28;658734;-73
2022/02/25 04:56:14;;;;;;;13.47;5.30;;;4.20;1.00;;;;;;4381844;28;658107;-73
2022/02/25 04:59:01;;;;;;;16.00;5.80;;;4.40;1.00;;;;;;4383842;28;656924;-72
2022/02/25 05:01:49;;;;;;;20.40;5.57;;;4.70;1.00;;;;;;4409423;28;657075;-73
2022/02/25 05:04:36;;;;;;;14.53;5.00;;;4.80;1.00;;;;;;4387090;28;657123;-73
2022/02/25 05:07:25;;;;;;;8.70;3.93;;;4.90;1.00;;;;;;4406276;28;656781;-73
2022/02/25 05:10:12;;;;;;;14.43;4.30;;;5.20;1.00;;;;;;4380100;28;656590;-72
2022/02/25 05:13:02;;;;;;;7.93;3.60;;;5.30;1.00;;;;;;4398794;28;656904;-72
2022/02/25 05:22:14;;;;;;;16.33;4.53;;;5.50;1.00;;;;;;4332989;28;656882;-73
2022/02/25 05:25:02;;;;;;;19.70;5.03;;;5.60;1.00;;;;;;4334006;28;656778;-73
2022/02/25 05:27:50;;;;;;;12.60;5.30;;;5.60;1.00;;;;;;4357613;28;657454;-73
2022/02/25 05:30:40;;;;;;;15.67;5.43;;;5.60;1.00;;;;;;4333476;28;658177;-73
2022/02/25 05:33:27;;;;;;;16.57;5.67;;;5.60;1.00;;;;;;4334777;28;658093;-73
2022/02/25 05:36:15;;;;;;;15.73;5.27;;;5.60;1.00;;;;;;4354798;28;656848;-73
2022/02/25 05:39:03;;;;;;;16.30;5.30;;;5.50;1.00;;;;;;4331702;28;656975;-73
2022/02/25 05:41:51;;;;;;;20.60;5.63;;;5.50;1.00;;;;;;4346567;28;658085;-72
2022/02/25 05:45:00;;;;;;;19.17;5.60;;;5.50;1.00;;;;;;4358453;28;657121;-73
2022/02/25 05:47:49;;;;;;;13.73;5.60;;;5.50;1.00;;;;;;4302984;28;656902;-73
2022/02/25 05:50:37;;;;;;;15.70;5.70;;;5.50;1.00;;;;;;4322556;28;656480;-73
2022/02/25 05:53:24;;;;;;;10.93;4.90;;;5.40;1.00;;;;;;4380398;28;656900;-73
2022/02/25 05:56:12;;;;;;;13.27;5.70;;;5.40;1.00;;;;;;4374623;28;657709;-73
2022/02/25 05:58:59;;;;;;;17.20;5.70;;;5.40;1.00;;;;;;4402783;28;656481;-73
2022/02/25 06:01:47;;;;;;;13.87;6.00;;;5.40;1.00;;;;;;4386341;28;657654;-73
2022/02/25 06:04:36;;;;;;;14.97;4.73;;;5.30;1.00;;;;;;4397292;28;656790;-72
2022/02/25 06:07:24;;;;;;;11.63;4.47;;;5.30;1.00;;;;;;4380147;28;658059;-73
2022/02/25 06:10:11;;;;;;;14.87;6.03;;;5.20;1.00;;;;;;4365711;28;656606;-73
2022/02/25 06:13:00;;;;;;;12.13;4.77;;;5.20;1.00;;;;;;4385840;28;657307;-73
2022/02/25 06:15:47;;;;;;;10.50;4.30;;;5.30;1.00;;;;;;4373484;28;659095;-73
2022/02/25 06:18:38;;;;;;;8.70;2.70;;;5.20;99.60;;;;;;4405418;28;656226;-72
2022/02/25 06:21:27;;;;;;;4.87;2.10;;;5.20;99.90;;;;;;4396177;28;656497;-72
2022/02/25 06:24:14;;;;;;;3.90;1.97;;;5.10;99.90;;;;;;4405073;28;657140;-73
2022/02/25 06:27:02;;;;;;;4.40;1.50;;;4.90;1.00;;;;;;4379613;28;657578;-73
2022/02/25 06:29:50;;;;;;;2.57;1.30;;;4.90;1.00;;;;;;4405613;28;655783;-72
2022/02/25 06:32:38;;;;;;;5.07;1.67;;;4.70;99.90;;;;;;4402289;28;657337;-72
2022/02/25 06:35:28;;;;;;;2.37;1.00;;;4.60;99.90;;;;;;4384108;28;656884;-73
2022/02/25 06:38:17;;;;;;;2.57;1.17;;;4.50;1.00;;;;;;4385190;28;656484;-72
2022/02/25 06:41:05;;;;;;;3.97;1.70;;;4.30;1.70;;;;;;4403380;28;655364;-72
2022/02/25 06:43:53;;;;;;;3.00;1.40;;;4.20;1.00;;;;;;4380347;28;655689;-73
2022/02/25 06:46:40;;;;;;;6.50;1.90;;;4.10;1.00;;;;;;4396015;28;657319;-72
2022/02/25 06:49:28;;;;;;;4.07;1.83;;;3.90;1.00;;;;;;4403691;28;657520;-72
2022/02/25 06:52:16;;;;;;;4.60;1.60;;;3.50;1.00;;;;;;4371695;28;655844;-71
2022/02/25 06:55:06;;;;;;;3.33;1.40;;;3.20;1.00;;;;;;4392766;28;655507;-72
2022/02/25 06:57:54;;;;;;;3.13;1.80;;;2.90;1.00;;;;;;4361848;28;656341;-72
2022/02/25 07:00:42;;;;;;;2.60;1.60;;;2.70;99.90;;;;;;4362494;28;655481;-71
2022/02/25 07:03:29;;;;;;;1.95;1.38;;;2.50;1.00;;;;;;4377661;28;657629;-72
2022/02/25 07:06:17;;;;;;;2.20;1.40;;;2.30;99.90;;;;;;4364755;28;655895;-72
2022/02/25 07:09:05;;;;;;;3.57;2.07;;;2.20;1.00;;;;;;4369859;28;657366;-72
2022/02/25 07:11:54;;;;;;;3.13;1.73;;;2.10;99.90;;;;;;4338754;28;655773;-72
2022/02/25 07:14:42;;;;;;;3.30;2.30;;;2.00;1.00;;;;;;4376590;28;656719;-72
2022/02/25 07:17:30;;;;;;;2.72;1.63;;;1.90;99.90;;;;;;4403742;28;655149;-72
2022/02/25 07:20:17;;;;;;;3.37;2.30;;;2.00;1.00;;;;;;4378065;28;657709;-72
2022/02/25 07:23:05;;;;;;;6.80;2.27;;;2.10;1.00;;;;;;4401771;28;655401;-72
2022/02/25 07:25:53;;;;;;;4.00;2.33;;;2.10;1.00;;;;;;4383634;28;656091;-72
2022/02/25 07:28:42;;;;;;;3.50;2.50;;;2.10;1.00;;;;;;4393019;28;657108;-71
2022/02/25 07:31:30;;;;;;;8.77;3.50;;;2.10;59.30;;;;;;4400611;28;655237;-72
2022/02/25 07:34:18;;;;;;;5.77;3.23;;;2.10;99.90;;;;;;4380864;28;657414;-72
2022/02/25 07:37:06;;;;;;;4.87;2.70;;;2.00;99.90;;;;;;4399357;28;657023;-71
2022/02/25 07:39:53;;;;;;;6.40;3.23;;;2.10;99.90;;;;;;4404093;28;657154;-71
2022/02/25 07:42:41;;;;;;;4.63;3.20;;;2.10;99.90;;;;;;4378169;28;656836;-72
2022/02/25 07:45:31;;;;;;;7.17;3.60;;;2.10;99.90;;;;;;4399928;28;656202;-72
2022/02/25 07:48:18;;;;;;;6.03;3.77;;;2.00;1.00;;;;;;4377719;28;657332;-72
2022/02/25 07:51:06;;;;;;;7.20;4.33;;;2.00;1.00;;;;;;4388737;28;656547;-71
2022/02/25 07:53:54;;;;;;;8.40;4.03;;;2.00;1.00;;;;;;4401865;28;656533;-72
2022/02/25 07:56:42;;;;;;;6.47;3.47;;;2.00;1.00;;;;;;4377507;28;655393;-71
2022/02/25 07:59:29;;;;;;;9.43;4.87;;;2.00;1.00;;;;;;4403735;28;655292;-72
2022/02/25 08:02:19;;;;;;;7.57;4.77;;;2.10;1.00;;;;;;4388687;28;657047;-71
2022/02/25 08:05:07;;;;;;;11.67;5.80;;;2.00;74.00;;;;;;4381777;28;656469;-72
2022/02/25 08:07:54;;;;;;;11.82;6.15;;;2.10;99.90;;;;;;4402814;28;658717;-72
2022/02/25 08:10:42;;;;;;;13.03;6.60;;;2.10;99.90;;;;;;4367308;28;658543;-72
2022/02/25 08:13:30;;;;;;;11.80;7.00;;;2.20;99.90;;;;;;4399213;28;658698;-72
2022/02/25 08:16:17;;;;;;;13.80;7.17;;;2.20;95.30;;;;;;4375061;28;659296;-72
2022/02/25 08:19:07;;;;;;;15.33;8.63;;;2.20;93.10;;;;;;4390109;28;657519;-71
2022/02/25 08:21:56;;;;;;;15.13;8.00;;;2.20;94.50;;;;;;4394776;28;659573;-72
2022/02/25 08:24:43;;;;;;;15.03;7.83;;;2.20;93.00;;;;;;4394982;28;657880;-72
2022/02/25 08:27:31;;;;;;;14.20;8.67;;;2.20;99.70;;;;;;4377314;28;657571;-71
2022/02/25 08:30:20;;;;;;;12.30;6.47;;;2.20;97.70;;;;;;4406236;28;658324;-71
2022/02/25 08:33:07;;;;;;;13.90;7.43;;;2.20;78.20;;;;;;4381272;28;659168;-72
2022/02/25 08:35:57;;;;;;;20.37;8.03;;;2.10;14.70;;;;;;4404562;28;658451;-71
2022/02/25 08:38:45;;;;;;;18.02;7.70;;;2.10;1.00;;;;;;4400187;28;657206;-71
2022/02/25 08:41:32;;;;;;;11.93;6.63;;;2.10;1.00;;;;;;4384503;28;657782;-71
2022/02/25 08:44:20;;;;;;;13.63;7.57;;;2.10;99.90;;;;;;4404977;28;656301;-71
2022/02/25 08:47:08;;;;;;;9.45;5.00;;;2.20;99.90;;;;;;4385639;28;657458;-71
2022/02/25 08:49:55;;;;;;;11.17;6.50;;;2.30;90.80;;;;;;4386505;28;656674;-71
2022/02/25 08:52:45;;;;;;;12.73;7.10;;;2.40;19.20;;;;;;4406366;28;658848;-71
2022/02/25 08:55:33;;;;;;;15.23;7.07;;;2.40;1.00;;;;;;4378537;28;658917;-71
2022/02/25 08:58:21;;;;;;;13.60;7.00;;;2.60;1.00;;;;;;4385812;28;657052;-71
2022/02/25 09:01:09;;;;;;;12.03;6.90;;;2.70;1.00;;;;;;4404015;28;658061;-71
2022/02/25 09:04:00;;;;;;;13.33;6.90;;;2.90;99.90;;;;;;4382526;28;657142;-71
2022/02/25 09:06:47;;;;;;;14.17;5.97;;;3.10;1.00;;;;;;4374272;28;658828;-71
2022/02/25 09:09:37;;;;;;;7.40;4.23;;;3.10;1.00;;;;;;4403004;28;657514;-71
2022/02/25 09:12:25;;;;;;;11.53;5.83;;;3.00;99.90;;;;;;4405625;28;655204;-71
2022/02/25 09:15:14;;;;;;;7.63;4.53;;;3.00;99.90;;;;;;4382545;28;659272;-71
2022/02/25 09:18:04;;;;;;;9.23;4.47;;;3.10;1.00;;;;;;4386422;28;657248;-71
2022/02/25 09:20:51;;;;;;;9.07;4.63;;;3.20;99.90;;;;;;4387309;28;657079;-71
2022/02/25 09:23:39;;;;;;;10.30;5.30;;;3.30;1.00;;;;;;4401225;28;656773;-71
2022/02/25 09:26:28;;;;;;;10.70;5.90;;;3.40;1.00;;;;;;4385581;28;657048;-72
2022/02/25 09:29:16;;;;;;;12.52;6.10;;;3.30;99.90;;;;;;4385699;28;656671;-72
2022/02/25 09:32:05;;;;;;;10.87;6.67;;;3.20;1.00;;;;;;4407204;28;658191;-72
2022/02/25 09:34:52;;;;;;;11.83;6.20;;;3.20;99.90;;;;;;4384258;28;657309;-72
2022/02/25 09:37:41;;;;;;;12.93;5.90;;;3.10;36.60;;;;;;4404070;28;658483;-72
2022/02/25 09:40:30;;;;;;;12.15;5.72;;;3.10;1.00;;;;;;4381722;28;658611;-71
2022/02/25 09:43:19;;;;;;;12.47;5.77;;;3.10;99.90;;;;;;4383660;28;658324;-71
2022/02/25 09:46:07;;;;;;;11.27;6.20;;;3.30;1.00;;;;;;4380763;28;657628;-71
2022/02/25 09:48:54;;;;;;;11.80;5.70;;;3.40;1.00;;;;;;4398600;28;656843;-71
2022/02/25 09:51:42;;;;;;;11.47;6.17;;;3.60;1.00;;;;;;4381936;28;656727;-71
2022/02/25 09:54:29;;;;;;;10.30;5.40;;;3.70;99.90;;;;;;4406131;28;656895;-71
2022/02/25 09:57:18;;;;;;;12.23;4.93;;;3.60;1.00;;;;;;4376659;28;658539;-71
2022/02/25 10:00:09;;;;;;;8.97;4.20;;;3.60;1.00;;;;;;4382979;28;656785;-71
2022/02/25 10:02:58;;;;;;;8.93;3.83;;;3.60;47.80;;;;;;4360755;28;655979;-71
2022/02/25 10:05:46;;;;;;;11.33;4.50;;;3.80;99.90;;;;;;4386286;28;657198;-71
2022/02/25 10:08:34;;;;;;;10.03;4.60;;;3.90;1.00;;;;;;4404196;28;658588;-71
2022/02/25 10:11:21;;;;;;;8.93;4.50;;;4.10;3.50;;;;;;4380722;28;657026;-71
2022/02/25 10:14:12;;;;;;;8.53;4.50;;;4.40;99.90;;;;;;4406892;28;656841;-71
2022/02/25 10:17:12;;;;;;;8.73;4.53;;;4.40;99.90;;;;;;4381765;28;656761;-71
2022/02/25 10:20:01;;;;;;;7.43;3.90;;;4.50;1.00;;;;;;4382743;28;657042;-71
2022/02/25 10:22:49;;;;;;;6.53;2.93;;;4.30;99.90;;;;;;4381643;28;658149;-71
2022/02/25 10:25:36;;;;;;;8.10;3.73;;;4.10;1.00;;;;;;4382271;28;656856;-72
2022/02/25 10:28:31;;;;;;;8.83;3.30;;;3.80;1.00;;;;;;4403741;28;655802;-71
2022/02/25 10:31:26;;;;;;;7.17;3.43;;;3.70;65.10;;;;;;4382480;28;655745;-71
2022/02/25 10:34:16;;;;;;;7.35;3.70;;;3.70;1.00;;;;;;4378995;28;657126;-71
2022/02/25 10:37:04;;;;;;;8.40;3.20;;;3.80;97.40;;;;;;4376956;28;656052;-72
2022/02/25 10:39:51;;;;;;;6.23;3.80;;;3.80;99.90;;;;;;4383172;28;657093;-71
2022/02/25 10:42:39;;;;;;;8.40;3.33;;;3.90;1.00;;;;;;4402083;28;657900;-71
2022/02/25 10:45:28;;;;;;;6.60;3.30;;;3.90;1.00;;;;;;4380950;28;655952;-71
2022/02/25 10:48:17;;;;;;;7.53;3.53;;;3.90;99.90;;;;;;4385506;28;654995;-71
2022/02/25 10:51:08;;;;;;;10.07;4.03;;;3.90;99.90;;;;;;4395270;28;656989;-72
2022/02/25 10:53:59;;;;;;;8.20;3.60;;;3.90;99.90;;;;;;4390125;28;657974;-72
2022/02/25 10:56:48;;;;;;;6.77;3.50;;;3.90;1.00;;;;;;4382347;28;656923;-71
2022/02/25 10:59:43;;;;;;;12.97;4.20;;;4.00;99.90;;;;;;4388479;28;655305;-71
2022/02/25 11:02:34;;;;;;;11.03;3.60;;;4.30;1.00;;;;;;4357025;28;657480;-71
2022/02/25 11:05:22;;;;;;;10.77;3.60;;;4.40;1.00;;;;;;4380724;28;656548;-72
2022/02/25 11:08:11;;;;;;;5.33;3.00;;;4.50;99.90;;;;;;4401902;28;657192;-72
2022/02/25 11:10:59;;;;;;;7.67;3.27;;;4.30;99.90;;;;;;4379639;28;656888;-71
2022/02/25 11:13:46;;;;;;;10.13;3.40;;;4.30;99.90;;;;;;4378703;28;656528;-72
2022/02/25 11:16:35;;;;;;;7.47;3.10;;;4.20;99.90;;;;;;4400318;28;658485;-72
2022/02/25 11:19:24;;;;;;;5.93;2.40;;;4.30;99.90;;;;;;4382597;28;656942;-72
2022/02/25 11:22:11;;;;;;;6.10;2.07;;;4.30;99.90;;;;;;4381535;28;657069;-72
2022/02/25 11:25:00;;;;;;;5.37;1.43;;;4.30;99.90;;;;;;4404849;28;656796;-71
2022/02/25 11:27:48;;;;;;;6.53;1.80;;;4.40;99.90;;;;;;4378705;28;657670;-72
2022/02/25 11:30:38;;;;;;;4.45;1.40;;;4.50;41.30;;;;;;4380231;28;657100;-72
2022/02/25 11:33:26;;;;;;;8.47;1.63;;;4.70;43.10;;;;;;4392327;28;656838;-72
2022/02/25 11:36:14;;;;;;;3.78;1.55;;;5.60;48.80;;;;;;4401944;28;657240;-72
2022/02/25 11:39:01;;;;;;;2.17;1.00;;;6.30;1.00;;;;;;4384002;28;657946;-72
2022/02/25 11:41:53;;;;;;;5.03;1.40;;;6.90;1.00;;;;;;4393307;28;655626;-73
2022/02/25 11:44:41;;;;;;;4.73;1.60;;;7.20;1.00;;;;;;4363675;28;656371;-73
2022/02/25 11:47:39;;;;;;;10.60;2.20;;;7.10;1.00;;;;;;4403882;28;656369;-73
2022/02/25 11:50:34;;;;;;;4.47;1.73;;;7.00;1.00;;;;;;4376916;28;657405;-72
2022/02/25 11:53:23;;;;;;;4.70;1.27;;;6.80;1.00;;;;;;4912116;28;654178;-72
2022/02/25 11:56:16;;;;;;;4.70;1.30;;;6.60;1.00;;;;;;4974699;28;20203;-73
2022/02/25 11:59:06;;;;;;;5.47;1.57;;;6.50;1.00;;;;;;4976136;28;20215;-72
2022/02/25 12:02:02;;;;;;;4.53;1.40;;;6.80;1.00;;;;;;4981207;28;20269;-72
2022/02/25 12:05:10;;;;;;;4.60;1.30;;;7.20;1.00;;;;;;4978524;28;20211;-73
2022/02/25 12:07:57;;;;;;;4.27;1.10;;;7.00;1.00;;;;;;4980839;28;20282;-73
2022/02/25 12:10:45;;;;;;;5.43;1.20;;;7.40;1.00;;;;;;4982701;28;20772;-74
2022/02/25 12:13:33;;;;;;;5.23;1.10;;;7.90;1.00;;;;;;4978443;28;20401;-74
2022/02/25 12:16:33;;;;;;;3.53;0.90;;;8.50;1.00;;;;;;4976716;28;20207;-73
2022/02/25 12:19:22;;;;;;;4.13;1.20;;;8.20;1.00;;;;;;4978427;28;20586;-74
2022/02/25 12:22:19;;;;;;;3.97;1.20;;;8.40;1.00;;;;;;4975146;28;20206;-72
2022/02/25 12:25:10;;;;;;;6.47;1.37;;;8.70;1.00;;;;;;5014239;28;20234;-74
2022/02/25 12:27:58;;;;;;;5.40;1.73;;;9.00;1.00;;;;;;5035792;28;20738;-73
2022/02/25 12:30:46;;;;;;;3.23;1.30;;;9.00;1.00;;;;;;5042395;28;20223;-73
2022/02/25 12:33:36;;;;;;;5.13;1.60;;;8.20;1.00;;;;;;5037289;28;20974;-74
2022/02/25 12:36:53;;;;;;;5.77;1.53;;;8.00;1.00;;;;;;5038880;28;20677;-73
2022/02/25 12:39:41;;;;;;;7.37;1.50;;;7.70;1.00;;;;;;5034784;28;20254;-73
2022/02/25 12:42:30;;;;;;;5.93;1.40;;;7.30;1.00;;;;;;5034247;28;20199;-73
2022/02/25 12:45:27;;;;;;;7.63;1.80;;;7.40;1.00;;;;;;5039927;28;20215;-74
2022/02/25 12:48:15;;;;;;;8.37;1.73;;;6.90;1.00;;;;;;5035764;28;20838;-73
2022/02/25 12:51:05;;;;;;;8.27;1.80;;;6.60;1.00;;;;;;5035084;28;20238;-72
2022/02/25 12:53:53;;;;;;;4.77;1.60;;;6.50;1.00;;;;;;5037633;28;20201;-74
2022/02/25 12:56:43;;;;;;;5.30;1.50;;;6.50;1.00;;;;;;5036632;28;20351;-72
2022/02/25 12:59:35;;;;;;;3.87;1.40;;;6.50;1.00;;;;;;5037165;28;20208;-73
2022/02/25 13:02:23;;;;;;;6.33;1.60;;;7.70;1.00;;;;;;5034932;28;20264;-73
2022/02/25 13:05:11;;;;;;;6.53;2.17;;;8.00;1.00;;;;;;5038396;28;20201;-72
2022/02/25 13:08:00;;;;;;;10.97;1.93;;;9.10;1.00;;;;;;5037691;28;20198;-72
2022/02/25 13:10:57;;;;;;;5.13;1.80;;;10.50;1.00;;;;;;5040904;28;20323;-72
2022/02/25 13:13:44;;;;;;;7.53;2.17;;;11.00;1.00;;;;;;5029951;28;20206;-74
2022/02/25 13:16:32;;;;;;;6.53;2.40;;;10.00;1.00;;;;;;5031050;28;20215;-72
2022/02/25 13:19:20;;;;;;;4.80;1.60;;;11.10;1.00;;;;;;5036914;28;20593;-72
2022/02/25 13:22:14;;;;;;;5.90;1.87;;;11.20;1.00;;;;;;5037397;28;20205;-73
2022/02/25 13:25:05;;;;;;;5.73;1.67;;;12.00;1.00;;;;;;5040235;28;20204;-72
2022/02/25 13:27:55;;;;;;;6.30;1.73;;;12.60;1.00;;;;;;5040795;28;20216;-72
2022/02/25 13:30:44;;;;;;;5.00;1.53;;;13.10;1.00;;;;;;5041381;28;20251;-72
2022/02/25 13:33:32;;;;;;;3.93;1.50;;;13.90;1.00;;;;;;5037795;28;20219;-72
2022/02/25 13:36:20;;;;;;;6.17;1.60;;;14.80;1.00;;;;;;5041371;28;20655;-72
2022/02/25 13:39:07;;;;;;;9.13;1.70;;;15.10;1.00;;;;;;5044082;28;20246;-72
2022/02/25 13:41:58;;;;;;;3.70;1.77;;;14.70;1.00;;;;;;5042744;28;20197;-73
2022/02/25 13:44:45;;;;;;;4.80;1.67;;;12.60;1.00;;;;;;5043527;28;20211;-72
2022/02/25 13:53:43;;;;;;;3.80;1.67;;;10.10;1.00;;;;;;5041855;28;20521;-72
2022/02/25 13:56:33;;;;;;;7.13;1.90;;;10.60;1.00;;;;;;5040434;28;20196;-71
2022/02/25 13:59:26;;;;;;;4.47;1.83;;;11.20;1.00;;;;;;5034436;28;20220;-71
2022/02/25 14:02:14;;;;;;;6.63;1.97;;;13.40;1.00;;;;;;5042112;28;20199;-71
2022/02/25 14:05:04;;;;;;;5.70;2.20;;;13.20;1.00;;;;;;5039617;28;20336;-71
2022/02/25 14:07:52;;;;;;;6.83;2.23;;;14.10;1.00;;;;;;5037351;28;20254;-71
2022/02/25 14:10:40;;;;;;;7.53;2.33;;;15.30;1.00;;;;;;5041229;28;20231;-72
2022/02/25 14:13:31;;;;;;;6.93;1.97;;;16.30;1.00;;;;;;5045197;28;20219;-71
2022/02/25 14:16:26;;;;;;;4.97;2.10;;;16.50;1.00;;;;;;5041286;28;20676;-72
2022/02/25 14:19:18;;;;;;;5.07;2.00;;;17.00;1.00;;;;;;5040542;28;20724;-72
2022/02/25 14:22:13;;;;;;;5.83;2.03;;;16.10;1.00;;;;;;5043041;28;20608;-71
2022/02/25 14:25:00;;;;;;;4.37;2.17;;;16.60;1.00;;;;;;5046090;28;20791;-71
2022/02/25 14:28:10;;;;;;;5.60;2.00;;;14.30;1.00;;;;;;5033152;28;20244;-71
2022/02/25 14:31:00;;;;;;;5.70;2.30;;;13.10;1.00;;;;;;5044833;28;20342;-71
2022/02/25 14:33:49;;;;;;;7.70;2.10;;;11.20;1.00;;;;;;5042582;28;20259;-71
2022/02/25 14:36:37;;;;;;;5.17;2.30;;;9.90;1.00;;;;;;5041446;28;20288;-71
2022/02/25 14:39:24;;;;;;;6.27;2.20;;;11.00;1.00;;;;;;5040880;28;20829;-71
2022/02/25 14:42:12;;;;;;;3.87;1.90;;;11.10;1.00;;;;;;5041747;28;20542;-71
2022/02/25 14:45:00;;;;;;;9.73;2.30;;;11.60;1.00;;;;;;5030225;28;20561;-71
2022/02/25 14:47:47;;;;;;;6.77;2.50;;;13.40;1.00;;;;;;5046600;28;20338;-71
2022/02/25 14:50:37;;;;;;;8.40;2.90;;;14.60;1.00;;;;;;5038993;28;20551;-71
2022/02/25 14:53:25;;;;;;;5.20;2.47;;;15.50;1.00;;;;;;5035566;28;20299;-71
2022/02/25 14:56:13;;;;;;;8.33;2.30;;;15.40;1.00;;;;;;5043252;28;20204;-71
2022/02/25 14:59:00;;;;;;;8.20;2.53;;;15.50;1.00;;;;;;5039870;28;20212;-71